Ely, NV

05:07 PST le 27 février 2015 (GMT -0800)
Ely | Change Station
CLOSE
Current Station
Aéroport
Location: Ely,
Altitude: 6260 ft
Stations météo à proximité

Alt. 6260 ft 39.30 °N, 114.85 °W | Updated 14 minutes ago

Couvert
Couvert
20 ° F
Paraît 10 ° F
N
8
Vent Variable Vent de SSE

Aujourd'hui
Haut(e) -- | Bas -- ° F
--% Risque de précip.
Hier
Haut(e) -- | Bas -- ° F
Precip. -- pouce
6:15 AM 5:29 PM
Lune gibbeuse croissante, 68% visible
Pression 29.83 pouce
Visibilité 10.0 Miles terrestres
Nuages Nuages épars 4400 ft
Couvert 8000 ft
Refroidissement éolien 10 ° F
Point de rosée 14 ° F
Humidité 78%
Précipitations 0.00 pouce
Profondeur de la couche neigeuse Non disponible.
UV 0 sur 12
Pollen 2.10 sur 12
Qualité de l'air Non disponible.
Flu Activity Non disponible.
METAR KELY 271253Z AUTO 16007KT 10SM SCT044 OVC080 M07/M10 A2981 RMK AO2 SLP101 T10671100

More Conditions Fewer Conditions

Pression 29.83 pouce
Visibilité 10.0 Miles terrestres
Nuages Nuages épars 4400 ft
Couvert 8000 ft
Refroidissement éolien 10 ° F
Point de rosée 14 ° F
Humidité 78%
Précipitations 0.00 pouce
Profondeur de la couche neigeuse Non disponible.
UV 0 sur 12
Pollen 2.10 sur 12
Qualité de l'air Non disponible.
Flu Activity Non disponible.
METAR KELY 271253Z AUTO 16007KT 10SM SCT044 OVC080 M07/M10 A2981 RMK AO2 SLP101 T10671100

More Conditions Fewer Conditions

10-Day Weather Forecast

Almanac

Astronomie

Feb. 27, 2015 Lever Coucher
Temps réel
Crépuscule civil
Crépuscule nautique
Crépuscule astronomique
Lune
Durée de lumière visible
Longueur du jour
Tomorrow will be .
, % of the Moon is Illuminated

Extrêmes aujourd'hui

State Highs State Lows

Community

WunderPhotos

Upload Photos

1,800,666 Photos téléchargées !

WunderBlogs® & News

Nearby

Qualité de l'air

  Qualité de l'air Indice de la qualité de l'air Polluant
Not available.

Épaisseur de neige

Station Depth Altitude

Activité sismique

Ville Distance Mag. Time & Date
Minimum magnitude displayed is 2.5.

Températures des eaux côtières

Lieu Température

Stations météo à proximité